createdAt,value
2019-01-27T00:02:09.008Z,1.97
2019-01-27T00:08:14.765Z,1.50
2019-01-27T00:14:20.633Z,1.77
2019-01-27T00:20:30.033Z,1.20
2019-01-27T00:26:36.684Z,1.30
2019-01-27T00:32:42.381Z,1.40
2019-01-27T00:38:48.156Z,1.50
2019-01-27T00:44:54.259Z,1.83
2019-01-27T00:51:00.278Z,1.70
2019-01-27T00:57:06.460Z,1.50
2019-01-27T01:03:12.546Z,1.60
2019-01-27T01:09:18.481Z,1.87
2019-01-27T01:15:24.801Z,1.87
2019-01-27T01:21:31.809Z,2.00
2019-01-27T01:27:37.994Z,2.20
2019-01-27T01:33:44.107Z,3.00
2019-01-27T01:39:50.054Z,1.80
2019-01-27T01:45:57.233Z,2.17
2019-01-27T01:52:03.445Z,2.00
2019-01-27T01:58:09.623Z,1.40
2019-01-27T02:04:15.860Z,1.20
2019-01-27T02:10:23.024Z,1.30
2019-01-27T02:16:29.019Z,1.40
2019-01-27T02:22:34.857Z,1.27
2019-01-27T02:28:41.551Z,1.23
2019-01-27T02:34:47.537Z,1.27
2019-01-27T02:40:53.430Z,1.50
2019-01-27T02:46:59.337Z,1.57
2019-01-27T02:53:05.483Z,2.00
2019-01-27T02:59:11.329Z,2.03
2019-01-27T03:05:51.270Z,2.93
2019-01-27T03:11:57.174Z,2.47
2019-01-27T03:18:03.199Z,2.43
2019-01-27T03:24:09.132Z,3.10
2019-01-27T03:30:18.106Z,3.37
2019-01-27T03:36:23.827Z,3.27
2019-01-27T03:42:29.523Z,3.27
2019-01-27T03:48:35.332Z,3.77
2019-01-27T03:54:41.490Z,3.60
2019-01-27T04:00:47.490Z,4.23
2019-01-27T04:06:54.639Z,4.40
2019-01-27T04:13:00.490Z,3.53
2019-01-27T04:19:09.311Z,3.97
2019-01-27T04:25:17.025Z,2.87
2019-01-27T04:31:22.932Z,2.57
2019-01-27T04:37:28.831Z,2.20
2019-01-27T04:43:34.527Z,3.53
2019-01-27T04:49:40.582Z,1.70
2019-01-27T04:55:46.433Z,1.47
2019-01-27T05:01:52.193Z,1.47
2019-01-27T05:07:58.157Z,1.07
2019-01-27T05:14:04.263Z,1.07
2019-01-27T05:20:11.604Z,1.00
2019-01-27T05:26:17.557Z,1.40
2019-01-27T05:32:23.252Z,1.10
2019-01-27T05:38:29.019Z,0.60
2019-01-27T05:44:35.006Z,0.90
2019-01-27T05:50:40.921Z,1.40
2019-01-27T05:56:46.654Z,1.23
2019-01-27T06:02:52.656Z,1.10
2019-01-27T06:08:58.452Z,0.60
2019-01-27T06:15:05.346Z,0.60
2019-01-27T06:21:11.203Z,2.93
2019-01-27T06:27:16.928Z,1.17
2019-01-27T06:33:32.592Z,0.70
2019-01-27T06:39:38.521Z,0.80
2019-01-27T06:45:44.360Z,1.00
2019-01-27T06:51:50.140Z,0.93
2019-01-27T06:57:55.973Z,0.80
2019-01-27T07:04:09.062Z,0.70
2019-01-27T07:10:52.205Z,1.17
2019-01-27T07:17:09.683Z,1.53
2019-01-27T07:23:33.394Z,0.80
2019-01-27T07:30:13.677Z,0.57
2019-01-27T07:36:44.385Z,0.70
2019-01-27T07:42:57.709Z,0.50
2019-01-27T07:49:21.456Z,0.97
2019-01-27T07:55:45.061Z,0.70
2019-01-27T08:02:14.507Z,0.83
2019-01-27T08:08:51.338Z,1.43
2019-01-27T08:15:21.201Z,1.20
2019-01-27T08:22:01.414Z,1.10
2019-01-27T08:28:24.363Z,1.60
2019-01-27T08:34:45.911Z,0.80
2019-01-27T08:41:10.552Z,1.60
2019-01-27T08:47:16.243Z,1.73
2019-01-27T08:53:25.255Z,0.87
2019-01-27T08:59:31.308Z,0.70
2019-01-27T09:06:02.042Z,2.17
2019-01-27T09:12:39.581Z,1.30
2019-01-27T09:18:58.004Z,2.73
2019-01-27T09:25:34.576Z,2.43
2019-01-27T09:31:58.054Z,1.70
2019-01-27T09:38:18.039Z,2.20
2019-01-27T09:45:01.339Z,1.10
2019-01-27T09:51:16.607Z,2.00
2019-01-27T09:57:31.977Z,1.23
2019-01-27T10:03:54.185Z,2.07
2019-01-27T10:10:33.741Z,1.87
2019-01-27T10:16:57.369Z,1.07
2019-01-27T10:23:40.826Z,1.43
2019-01-27T10:30:02.312Z,3.77
2019-01-27T10:36:17.567Z,2.63
2019-01-27T10:42:31.567Z,2.43
2019-01-27T10:49:13.724Z,3.63
2019-01-27T10:55:29.866Z,2.97
2019-01-27T11:01:53.138Z,1.43
2019-01-27T11:08:06.380Z,1.27
2019-01-27T11:14:32.891Z,2.57
2019-01-27T11:20:58.107Z,4.00
2019-01-27T11:27:32.973Z,0.97
2019-01-27T11:33:44.120Z,3.73
2019-01-27T11:46:38.453Z,2.10
2019-01-27T11:53:12.285Z,1.07
2019-01-27T11:59:18.509Z,2.27
2019-01-27T12:05:24.440Z,0.93
2019-01-27T12:11:30.489Z,1.90
2019-01-27T12:17:38.697Z,1.20
2019-01-27T12:23:44.416Z,3.10
2019-01-27T12:29:50.630Z,1.20
2019-01-27T12:35:57.458Z,2.27
2019-01-27T12:42:03.265Z,2.63
2019-01-27T12:48:09.059Z,3.07
2019-01-27T12:54:14.854Z,2.03
2019-01-27T13:00:37.136Z,4.10
2019-01-27T13:06:43.040Z,2.43
2019-01-27T13:12:49.021Z,2.67
2019-01-27T13:18:55.273Z,2.20
2019-01-27T13:25:01.492Z,1.23
2019-01-27T13:31:07.482Z,2.47
2019-01-27T13:37:13.453Z,2.27
2019-01-27T13:43:19.742Z,2.40
2019-01-27T13:49:25.602Z,2.77
2019-01-27T13:55:32.695Z,1.70
2019-01-27T14:01:38.617Z,2.50
2019-01-27T14:07:44.615Z,1.80
2019-01-27T14:13:50.490Z,1.77
2019-01-27T14:20:00.043Z,2.33
2019-01-27T14:26:06.174Z,2.57
2019-01-27T14:32:12.557Z,3.23
2019-01-27T14:38:20.115Z,2.43
2019-01-27T14:44:27.197Z,2.27
2019-01-27T14:50:41.622Z,2.87
2019-01-27T14:56:47.714Z,2.77
2019-01-27T15:02:53.877Z,4.03
2019-01-27T15:09:00.126Z,3.37
2019-01-27T15:15:09.959Z,3.20
2019-01-27T15:21:26.279Z,3.93
2019-01-27T15:27:32.061Z,3.50
2019-01-27T15:33:39.743Z,5.37
2019-01-27T15:39:45.641Z,3.97
2019-01-27T15:45:51.583Z,4.83
2019-01-27T15:51:57.657Z,9.73
2019-01-27T15:58:03.852Z,6.00
2019-01-27T16:04:09.806Z,7.97
2019-01-27T16:10:18.272Z,6.70
2019-01-27T16:16:24.174Z,8.23
2019-01-27T16:22:30.131Z,9.77
2019-01-27T16:28:36.125Z,8.60
2019-01-27T16:34:47.115Z,11.90
2019-01-27T16:40:52.907Z,8.17
2019-01-27T16:47:04.035Z,13.57
2019-01-27T16:53:09.979Z,13.00
2019-01-27T16:59:16.023Z,19.37
2019-01-27T17:05:22.261Z,10.03
2019-01-27T17:11:28.205Z,17.10
2019-01-27T17:17:36.491Z,13.23
2019-01-27T17:23:42.357Z,9.70
2019-01-27T17:29:54.993Z,12.50
2019-01-27T17:36:01.136Z,15.37
2019-01-27T17:42:07.260Z,13.63
2019-01-27T17:48:13.175Z,18.20
2019-01-27T17:54:19.451Z,8.17
2019-01-27T18:00:53.416Z,12.97
2019-01-27T18:07:21.174Z,10.10
2019-01-27T18:13:55.572Z,10.23
2019-01-27T18:20:01.773Z,11.27
2019-01-27T18:26:12.719Z,12.37
2019-01-27T18:32:19.361Z,13.53
2019-01-27T18:38:26.467Z,9.87
2019-01-27T18:44:32.685Z,9.03
2019-01-27T18:50:38.822Z,8.87
2019-01-27T18:57:00.707Z,9.27
2019-01-27T19:03:11.729Z,7.13
2019-01-27T19:09:51.091Z,5.33
2019-01-27T19:16:24.247Z,5.40
2019-01-27T19:22:55.063Z,4.03
2019-01-27T19:29:28.508Z,6.27
2019-01-27T19:36:12.161Z,9.40
2019-01-27T19:42:39.966Z,8.50
2019-01-27T19:48:59.470Z,5.50
2019-01-27T19:55:26.018Z,6.33
2019-01-27T20:01:49.872Z,10.73
2019-01-27T20:08:17.310Z,8.60
2019-01-27T20:14:58.289Z,14.47
2019-01-27T20:21:30.052Z,11.87
2019-01-27T20:28:04.152Z,10.50
2019-01-27T20:34:31.962Z,9.30
2019-01-27T20:41:01.926Z,8.57
2019-01-27T20:47:13.562Z,11.07
2019-01-27T20:53:27.978Z,8.63
2019-01-27T20:59:56.608Z,11.07
2019-01-27T21:06:31.311Z,10.83
2019-01-27T21:12:50.935Z,9.77
2019-01-27T21:19:10.887Z,6.67
2019-01-27T21:25:16.751Z,6.40
2019-01-27T21:31:22.483Z,6.40
2019-01-27T21:37:28.475Z,9.63
2019-01-27T21:43:34.684Z,10.30
2019-01-27T21:49:41.173Z,9.60
2019-01-27T21:55:47.141Z,9.80
2019-01-27T22:01:52.982Z,10.60
2019-01-27T22:07:59.466Z,10.70
2019-01-27T22:14:05.736Z,10.40
2019-01-27T22:20:14.864Z,11.33
2019-01-27T22:26:23.759Z,10.53
2019-01-27T22:32:30.067Z,10.97
2019-01-27T22:38:36.306Z,10.03
2019-01-27T22:44:42.430Z,10.40
2019-01-27T22:50:49.376Z,10.90
2019-01-27T22:56:55.611Z,9.33
2019-01-27T23:03:01.436Z,8.47
2019-01-27T23:09:15.941Z,9.80
2019-01-27T23:15:21.895Z,8.00
2019-01-27T23:21:27.634Z,6.60
2019-01-27T23:27:33.626Z,8.33
2019-01-27T23:33:39.423Z,6.83
2019-01-27T23:39:45.612Z,10.93
2019-01-27T23:45:51.672Z,6.20
2019-01-27T23:51:57.692Z,5.30
2019-01-27T23:58:03.529Z,4.73
